Delhi, Michigan
Current Conditions -  °F | °C
As of 8:53 AM on Thursday 23 Oct 2014 (Local Time) from KARB Reporting Station
Clear Clear  
Wind Chill: 32°   Ceiling: Unl
Heat Index: 32°   Visibility: NA
Dew Point: 30°   Wind: 3mph
Humidity: 92%   Direction: 260°W
Pressure: 30.24"   Gusts: NA
Location:  42.2601°N, 83.8448°W
Report Text: KARB 231253Z 26003KT CLR 00/M01 A3024 RMK AO2 SLP246 T00001011 $
Loading
Personal Weather Stations






























Interactive Weather Map
Tropical Storm Tracking
New forecast layout! Learn more

10-Day Weather Forecast

Advertisements
Track Severe Weather on mobile